sensor_id;sensor_type;location;lat;lon;timestamp;temperature;humidity
25352;DHT22;13304;48.464;8.712;2022-10-16T00:00:35;18.10;90.90
25352;DHT22;13304;48.464;8.712;2022-10-16T00:03:01;18.10;90.90
25352;DHT22;13304;48.464;8.712;2022-10-16T00:05:27;18.10;90.60
25352;DHT22;13304;48.464;8.712;2022-10-16T00:07:52;18.10;90.50
25352;DHT22;13304;48.464;8.712;2022-10-16T00:10:18;18.10;90.50
25352;DHT22;13304;48.464;8.712;2022-10-16T00:12:43;18.10;90.30
25352;DHT22;13304;48.464;8.712;2022-10-16T00:15:09;18.10;90.60
25352;DHT22;13304;48.464;8.712;2022-10-16T00:17:34;18.10;90.50
25352;DHT22;13304;48.464;8.712;2022-10-16T00:20:00;18.00;90.60
25352;DHT22;13304;48.464;8.712;2022-10-16T00:22:26;18.00;90.70
25352;DHT22;13304;48.464;8.712;2022-10-16T00:24:51;18.00;90.30
25352;DHT22;13304;48.464;8.712;2022-10-16T00:27:17;18.00;90.50
25352;DHT22;13304;48.464;8.712;2022-10-16T00:29:42;18.00;90.40
25352;DHT22;13304;48.464;8.712;2022-10-16T00:32:08;18.00;90.50
25352;DHT22;13304;48.464;8.712;2022-10-16T00:34:34;18.00;90.70
25352;DHT22;13304;48.464;8.712;2022-10-16T00:36:59;18.00;90.90
25352;DHT22;13304;48.464;8.712;2022-10-16T00:39:25;18.00;90.70
25352;DHT22;13304;48.464;8.712;2022-10-16T00:41:51;17.90;90.30
25352;DHT22;13304;48.464;8.712;2022-10-16T00:47:01;17.90;90.80
25352;DHT22;13304;48.464;8.712;2022-10-16T00:49:26;17.90;91.10
25352;DHT22;13304;48.464;8.712;2022-10-16T00:51:52;17.90;91.20
25352;DHT22;13304;48.464;8.712;2022-10-16T00:54:26;17.90;90.90
25352;DHT22;13304;48.464;8.712;2022-10-16T00:56:52;17.90;90.90
25352;DHT22;13304;48.464;8.712;2022-10-16T00:59:23;17.90;91.00
25352;DHT22;13304;48.464;8.712;2022-10-16T01:01:50;17.90;90.50
25352;DHT22;13304;48.464;8.712;2022-10-16T01:04:16;17.90;90.90
25352;DHT22;13304;48.464;8.712;2022-10-16T01:09:11;17.90;90.90
25352;DHT22;13304;48.464;8.712;2022-10-16T01:16:53;17.90;91.30
25352;DHT22;13304;48.464;8.712;2022-10-16T01:19:32;17.90;91.30
25352;DHT22;13304;48.464;8.712;2022-10-16T01:22:01;17.90;91.20
25352;DHT22;13304;48.464;8.712;2022-10-16T01:24:32;17.90;91.10
25352;DHT22;13304;48.464;8.712;2022-10-16T01:32:20;17.80;91.00
25352;DHT22;13304;48.464;8.712;2022-10-16T01:34:52;17.80;91.00
25352;DHT22;13304;48.464;8.712;2022-10-16T01:37:25;17.80;91.00
25352;DHT22;13304;48.464;8.712;2022-10-16T01:39:52;17.80;91.30
25352;DHT22;13304;48.464;8.712;2022-10-16T01:42:21;17.80;91.40
25352;DHT22;13304;48.464;8.712;2022-10-16T01:44:48;17.80;91.40
25352;DHT22;13304;48.464;8.712;2022-10-16T01:47:14;17.80;91.30
25352;DHT22;13304;48.464;8.712;2022-10-16T01:49:41;17.80;91.40
25352;DHT22;13304;48.464;8.712;2022-10-16T01:52:10;17.80;91.30
25352;DHT22;13304;48.464;8.712;2022-10-16T01:54:39;17.80;91.30
25352;DHT22;13304;48.464;8.712;2022-10-16T01:57:05;17.80;91.30
25352;DHT22;13304;48.464;8.712;2022-10-16T01:59:32;17.80;91.30
25352;DHT22;13304;48.464;8.712;2022-10-16T02:01:59;17.70;91.50
25352;DHT22;13304;48.464;8.712;2022-10-16T02:04:32;17.70;91.60
25352;DHT22;13304;48.464;8.712;2022-10-16T02:06:59;17.80;91.70
25352;DHT22;13304;48.464;8.712;2022-10-16T02:09:24;17.70;91.80
25352;DHT22;13304;48.464;8.712;2022-10-16T02:11:51;17.70;91.80
25352;DHT22;13304;48.464;8.712;2022-10-16T02:14:17;17.70;91.80
25352;DHT22;13304;48.464;8.712;2022-10-16T02:16:44;17.80;91.80
25352;DHT22;13304;48.464;8.712;2022-10-16T02:19:10;17.80;91.80
25352;DHT22;13304;48.464;8.712;2022-10-16T02:21:49;17.70;91.40
25352;DHT22;13304;48.464;8.712;2022-10-16T02:29:30;17.70;91.30
25352;DHT22;13304;48.464;8.712;2022-10-16T02:31:58;17.70;90.70
25352;DHT22;13304;48.464;8.712;2022-10-16T02:34:24;17.70;91.40
25352;DHT22;13304;48.464;8.712;2022-10-16T02:36:50;17.70;91.00
25352;DHT22;13304;48.464;8.712;2022-10-16T02:39:17;17.60;91.10
25352;DHT22;13304;48.464;8.712;2022-10-16T02:41:43;17.60;91.40
25352;DHT22;13304;48.464;8.712;2022-10-16T02:44:09;17.60;91.40
25352;DHT22;13304;48.464;8.712;2022-10-16T02:46:34;17.60;91.50
25352;DHT22;13304;48.464;8.712;2022-10-16T02:49:00;17.60;91.60
25352;DHT22;13304;48.464;8.712;2022-10-16T02:51:25;17.60;91.70
25352;DHT22;13304;48.464;8.712;2022-10-16T02:53:51;17.60;91.80
25352;DHT22;13304;48.464;8.712;2022-10-16T02:56:16;17.60;91.90
25352;DHT22;13304;48.464;8.712;2022-10-16T02:58:42;17.60;91.90
25352;DHT22;13304;48.464;8.712;2022-10-16T03:01:07;17.60;92.00
25352;DHT22;13304;48.464;8.712;2022-10-16T03:03:33;17.60;92.00
25352;DHT22;13304;48.464;8.712;2022-10-16T03:05:58;17.60;92.00
25352;DHT22;13304;48.464;8.712;2022-10-16T03:08:24;17.60;92.00
25352;DHT22;13304;48.464;8.712;2022-10-16T03:13:18;17.60;92.00
25352;DHT22;13304;48.464;8.712;2022-10-16T03:15:45;17.60;92.00
25352;DHT22;13304;48.464;8.712;2022-10-16T03:18:11;17.60;92.10
25352;DHT22;13304;48.464;8.712;2022-10-16T03:20:37;17.60;92.10
25352;DHT22;13304;48.464;8.712;2022-10-16T03:23:02;17.60;92.10
25352;DHT22;13304;48.464;8.712;2022-10-16T03:25:28;17.60;92.10
25352;DHT22;13304;48.464;8.712;2022-10-16T03:27:54;17.60;92.10
25352;DHT22;13304;48.464;8.712;2022-10-16T03:30:19;17.60;92.10
25352;DHT22;13304;48.464;8.712;2022-10-16T03:32:45;17.60;92.10
25352;DHT22;13304;48.464;8.712;2022-10-16T03:35:15;17.60;92.10
25352;DHT22;13304;48.464;8.712;2022-10-16T03:37:41;17.60;92.10
25352;DHT22;13304;48.464;8.712;2022-10-16T03:40:07;17.60;92.10
25352;DHT22;13304;48.464;8.712;2022-10-16T03:42:32;17.60;92.10
25352;DHT22;13304;48.464;8.712;2022-10-16T03:44:58;17.60;92.10
25352;DHT22;13304;48.464;8.712;2022-10-16T03:47:24;17.60;92.20
25352;DHT22;13304;48.464;8.712;2022-10-16T03:49:49;17.60;92.10
25352;DHT22;13304;48.464;8.712;2022-10-16T03:52:15;17.60;92.20
25352;DHT22;13304;48.464;8.712;2022-10-16T03:54:41;17.60;92.20
25352;DHT22;13304;48.464;8.712;2022-10-16T03:57:06;17.60;92.20
25352;DHT22;13304;48.464;8.712;2022-10-16T03:59:34;17.60;92.20
25352;DHT22;13304;48.464;8.712;2022-10-16T04:02:00;17.60;92.10
25352;DHT22;13304;48.464;8.712;2022-10-16T04:04:25;17.50;92.10
25352;DHT22;13304;48.464;8.712;2022-10-16T04:06:51;17.50;92.10
25352;DHT22;13304;48.464;8.712;2022-10-16T04:09:17;17.50;92.20
25352;DHT22;13304;48.464;8.712;2022-10-16T04:11:42;17.50;92.20
25352;DHT22;13304;48.464;8.712;2022-10-16T04:14:08;17.50;92.20
25352;DHT22;13304;48.464;8.712;2022-10-16T04:16:34;17.50;92.10
25352;DHT22;13304;48.464;8.712;2022-10-16T04:18:59;17.50;92.20
25352;DHT22;13304;48.464;8.712;2022-10-16T04:21:25;17.50;92.20
25352;DHT22;13304;48.464;8.712;2022-10-16T04:23:51;17.50;92.20
25352;DHT22;13304;48.464;8.712;2022-10-16T04:26:17;17.50;92.20
25352;DHT22;13304;48.464;8.712;2022-10-16T04:28:43;17.50;92.20
25352;DHT22;13304;48.464;8.712;2022-10-16T04:31:08;17.50;92.30
25352;DHT22;13304;48.464;8.712;2022-10-16T04:33:34;17.50;92.30
25352;DHT22;13304;48.464;8.712;2022-10-16T04:36:02;17.50;92.30
25352;DHT22;13304;48.464;8.712;2022-10-16T04:38:28;17.50;92.30
25352;DHT22;13304;48.464;8.712;2022-10-16T04:40:54;17.50;92.20
25352;DHT22;13304;48.464;8.712;2022-10-16T04:43:20;17.50;92.30
25352;DHT22;13304;48.464;8.712;2022-10-16T04:45:46;17.50;92.40
25352;DHT22;13304;48.464;8.712;2022-10-16T04:48:11;17.50;92.20
25352;DHT22;13304;48.464;8.712;2022-10-16T04:50:37;17.50;92.30
25352;DHT22;13304;48.464;8.712;2022-10-16T04:53:03;17.50;92.20
25352;DHT22;13304;48.464;8.712;2022-10-16T04:55:28;17.50;92.20
25352;DHT22;13304;48.464;8.712;2022-10-16T04:57:54;17.50;92.10
25352;DHT22;13304;48.464;8.712;2022-10-16T05:00:20;17.40;92.10
25352;DHT22;13304;48.464;8.712;2022-10-16T05:02:49;17.40;92.00
25352;DHT22;13304;48.464;8.712;2022-10-16T05:05:14;17.40;92.00
25352;DHT22;13304;48.464;8.712;2022-10-16T05:07:40;17.40;91.90
25352;DHT22;13304;48.464;8.712;2022-10-16T05:10:06;17.40;91.80
25352;DHT22;13304;48.464;8.712;2022-10-16T05:12:31;17.30;91.80
25352;DHT22;13304;48.464;8.712;2022-10-16T05:14:57;17.30;91.60
25352;DHT22;13304;48.464;8.712;2022-10-16T05:17:26;17.30;91.60
25352;DHT22;13304;48.464;8.712;2022-10-16T05:19:52;17.30;91.70
25352;DHT22;13304;48.464;8.712;2022-10-16T05:22:18;17.30;91.50
25352;DHT22;13304;48.464;8.712;2022-10-16T05:24:43;17.20;91.80
25352;DHT22;13304;48.464;8.712;2022-10-16T05:27:09;17.20;91.90
25352;DHT22;13304;48.464;8.712;2022-10-16T05:29:36;17.20;92.00
25352;DHT22;13304;48.464;8.712;2022-10-16T05:32:02;17.20;92.10
25352;DHT22;13304;48.464;8.712;2022-10-16T05:34:28;17.20;92.20
25352;DHT22;13304;48.464;8.712;2022-10-16T05:36:53;17.20;92.20
25352;DHT22;13304;48.464;8.712;2022-10-16T05:39:19;17.20;92.20
25352;DHT22;13304;48.464;8.712;2022-10-16T05:41:45;17.20;92.30
25352;DHT22;13304;48.464;8.712;2022-10-16T05:44:10;17.20;92.30
25352;DHT22;13304;48.464;8.712;2022-10-16T05:46:36;17.20;92.30
25352;DHT22;13304;48.464;8.712;2022-10-16T05:49:02;17.20;92.30
25352;DHT22;13304;48.464;8.712;2022-10-16T05:51:27;17.20;92.30
25352;DHT22;13304;48.464;8.712;2022-10-16T05:53:53;17.20;92.30
25352;DHT22;13304;48.464;8.712;2022-10-16T05:56:19;17.20;92.30
25352;DHT22;13304;48.464;8.712;2022-10-16T05:58:47;17.20;92.30
25352;DHT22;13304;48.464;8.712;2022-10-16T06:01:13;17.20;92.30
25352;DHT22;13304;48.464;8.712;2022-10-16T06:03:39;17.20;92.30
25352;DHT22;13304;48.464;8.712;2022-10-16T06:06:15;17.20;92.70
25352;DHT22;13304;48.464;8.712;2022-10-16T06:08:42;17.20;92.30
25352;DHT22;13304;48.464;8.712;2022-10-16T06:11:09;17.20;92.30
25352;DHT22;13304;48.464;8.712;2022-10-16T06:13:35;17.20;92.40
25352;DHT22;13304;48.464;8.712;2022-10-16T06:16:00;17.20;92.40
25352;DHT22;13304;48.464;8.712;2022-10-16T06:18:29;17.20;92.40
25352;DHT22;13304;48.464;8.712;2022-10-16T06:20:55;17.20;92.40
25352;DHT22;13304;48.464;8.712;2022-10-16T06:23:20;17.20;92.40
25352;DHT22;13304;48.464;8.712;2022-10-16T06:25:46;17.20;92.40
25352;DHT22;13304;48.464;8.712;2022-10-16T06:28:13;17.20;92.40
25352;DHT22;13304;48.464;8.712;2022-10-16T06:30:39;17.20;92.40
25352;DHT22;13304;48.464;8.712;2022-10-16T06:33:05;17.20;92.30
25352;DHT22;13304;48.464;8.712;2022-10-16T06:35:30;17.30;92.50
25352;DHT22;13304;48.464;8.712;2022-10-16T06:37:57;17.30;92.50
25352;DHT22;13304;48.464;8.712;2022-10-16T06:40:23;17.30;92.60
25352;DHT22;13304;48.464;8.712;2022-10-16T06:42:48;17.30;92.60
25352;DHT22;13304;48.464;8.712;2022-10-16T06:45:14;17.30;92.70
25352;DHT22;13304;48.464;8.712;2022-10-16T06:47:40;17.30;92.40
25352;DHT22;13304;48.464;8.712;2022-10-16T06:50:06;17.30;92.60
25352;DHT22;13304;48.464;8.712;2022-10-16T06:52:34;17.40;92.70
25352;DHT22;13304;48.464;8.712;2022-10-16T06:55:00;17.40;92.70
25352;DHT22;13304;48.464;8.712;2022-10-16T06:57:25;17.40;92.70
25352;DHT22;13304;48.464;8.712;2022-10-16T06:59:51;17.40;92.80
25352;DHT22;13304;48.464;8.712;2022-10-16T07:02:17;17.40;92.80
25352;DHT22;13304;48.464;8.712;2022-10-16T07:04:42;17.40;92.10
25352;DHT22;13304;48.464;8.712;2022-10-16T07:07:08;17.40;92.00
25352;DHT22;13304;48.464;8.712;2022-10-16T07:09:33;17.50;92.50
25352;DHT22;13304;48.464;8.712;2022-10-16T07:11:59;17.50;92.70
25352;DHT22;13304;48.464;8.712;2022-10-16T07:14:24;17.50;92.90
25352;DHT22;13304;48.464;8.712;2022-10-16T07:16:50;17.50;92.50
25352;DHT22;13304;48.464;8.712;2022-10-16T07:19:16;17.60;92.60
25352;DHT22;13304;48.464;8.712;2022-10-16T07:21:43;17.60;92.50
25352;DHT22;13304;48.464;8.712;2022-10-16T07:24:12;17.70;92.80
25352;DHT22;13304;48.464;8.712;2022-10-16T07:26:39;17.70;92.30
25352;DHT22;13304;48.464;8.712;2022-10-16T07:29:06;17.70;92.70
25352;DHT22;13304;48.464;8.712;2022-10-16T07:31:32;17.80;92.80
25352;DHT22;13304;48.464;8.712;2022-10-16T07:33:58;17.80;92.50
25352;DHT22;13304;48.464;8.712;2022-10-16T07:36:26;17.80;93.10
25352;DHT22;13304;48.464;8.712;2022-10-16T07:38:52;17.90;93.10
25352;DHT22;13304;48.464;8.712;2022-10-16T07:41:19;17.90;93.20
25352;DHT22;13304;48.464;8.712;2022-10-16T07:43:45;18.00;92.50
25352;DHT22;13304;48.464;8.712;2022-10-16T07:46:14;18.00;92.90
25352;DHT22;13304;48.464;8.712;2022-10-16T07:48:40;18.10;91.70
25352;DHT22;13304;48.464;8.712;2022-10-16T07:51:06;18.10;92.20
25352;DHT22;13304;48.464;8.712;2022-10-16T07:53:32;18.20;92.30
25352;DHT22;13304;48.464;8.712;2022-10-16T07:55:58;18.20;92.20
25352;DHT22;13304;48.464;8.712;2022-10-16T07:58:23;18.20;92.40
25352;DHT22;13304;48.464;8.712;2022-10-16T08:00:49;18.20;92.00
25352;DHT22;13304;48.464;8.712;2022-10-16T08:03:15;18.30;92.00
25352;DHT22;13304;48.464;8.712;2022-10-16T08:05:40;18.30;92.30
25352;DHT22;13304;48.464;8.712;2022-10-16T08:08:06;18.40;91.90
25352;DHT22;13304;48.464;8.712;2022-10-16T08:10:31;18.40;92.40
25352;DHT22;13304;48.464;8.712;2022-10-16T08:12:57;18.50;91.70
25352;DHT22;13304;48.464;8.712;2022-10-16T08:15:24;18.50;91.80
25352;DHT22;13304;48.464;8.712;2022-10-16T08:17:56;18.60;91.80
25352;DHT22;13304;48.464;8.712;2022-10-16T08:20:22;18.60;92.20
25352;DHT22;13304;48.464;8.712;2022-10-16T08:22:47;18.60;92.40
25352;DHT22;13304;48.464;8.712;2022-10-16T08:25:13;18.70;92.00
25352;DHT22;13304;48.464;8.712;2022-10-16T08:27:38;18.70;92.60
25352;DHT22;13304;48.464;8.712;2022-10-16T08:30:04;18.70;92.60
25352;DHT22;13304;48.464;8.712;2022-10-16T08:32:30;18.80;92.50
25352;DHT22;13304;48.464;8.712;2022-10-16T08:34:55;18.80;92.10
25352;DHT22;13304;48.464;8.712;2022-10-16T08:37:21;18.80;92.60
25352;DHT22;13304;48.464;8.712;2022-10-16T08:39:47;18.80;92.50
25352;DHT22;13304;48.464;8.712;2022-10-16T08:44:56;18.90;92.20
25352;DHT22;13304;48.464;8.712;2022-10-16T08:47:26;18.90;92.60
25352;DHT22;13304;48.464;8.712;2022-10-16T08:50:05;18.90;92.70
25352;DHT22;13304;48.464;8.712;2022-10-16T08:52:34;18.90;92.40
25352;DHT22;13304;48.464;8.712;2022-10-16T08:55:00;19.00;92.60
25352;DHT22;13304;48.464;8.712;2022-10-16T08:57:27;19.00;92.80
25352;DHT22;13304;48.464;8.712;2022-10-16T08:59:54;19.00;92.00
25352;DHT22;13304;48.464;8.712;2022-10-16T09:02:35;19.00;92.50
25352;DHT22;13304;48.464;8.712;2022-10-16T09:05:09;19.00;91.20
25352;DHT22;13304;48.464;8.712;2022-10-16T09:07:39;19.10;92.40
25352;DHT22;13304;48.464;8.712;2022-10-16T09:17:52;19.10;92.10
25352;DHT22;13304;48.464;8.712;2022-10-16T09:22:53;19.20;92.30
25352;DHT22;13304;48.464;8.712;2022-10-16T09:25:23;19.30;92.30
25352;DHT22;13304;48.464;8.712;2022-10-16T09:27:49;19.30;92.00
25352;DHT22;13304;48.464;8.712;2022-10-16T09:30:18;19.40;92.50
25352;DHT22;13304;48.464;8.712;2022-10-16T09:32:44;19.40;91.40
25352;DHT22;13304;48.464;8.712;2022-10-16T09:35:13;19.40;91.30
25352;DHT22;13304;48.464;8.712;2022-10-16T09:37:39;19.40;91.90
25352;DHT22;13304;48.464;8.712;2022-10-16T09:40:05;19.40;92.00
25352;DHT22;13304;48.464;8.712;2022-10-16T09:42:32;19.40;92.30
25352;DHT22;13304;48.464;8.712;2022-10-16T09:44:59;19.40;92.30
25352;DHT22;13304;48.464;8.712;2022-10-16T09:47:26;19.50;92.30
25352;DHT22;13304;48.464;8.712;2022-10-16T09:49:56;19.40;92.10
25352;DHT22;13304;48.464;8.712;2022-10-16T09:52:24;19.40;91.20
25352;DHT22;13304;48.464;8.712;2022-10-16T09:54:52;19.50;91.60
25352;DHT22;13304;48.464;8.712;2022-10-16T09:57:18;19.50;92.40
25352;DHT22;13304;48.464;8.712;2022-10-16T10:02:14;19.60;92.50
25352;DHT22;13304;48.464;8.712;2022-10-16T10:04:41;19.60;92.10
25352;DHT22;13304;48.464;8.712;2022-10-16T10:07:31;19.60;92.70
25352;DHT22;13304;48.464;8.712;2022-10-16T10:09:57;19.70;92.00
25352;DHT22;13304;48.464;8.712;2022-10-16T10:14:52;19.80;92.50
25352;DHT22;13304;48.464;8.712;2022-10-16T10:19:51;19.90;92.40
25352;DHT22;13304;48.464;8.712;2022-10-16T10:22:18;20.00;92.80
25352;DHT22;13304;48.464;8.712;2022-10-16T10:24:55;20.10;93.20
25352;DHT22;13304;48.464;8.712;2022-10-16T10:27:21;20.20;93.30
25352;DHT22;13304;48.464;8.712;2022-10-16T10:29:53;20.30;91.70
25352;DHT22;13304;48.464;8.712;2022-10-16T10:32:30;20.40;92.40
25352;DHT22;13304;48.464;8.712;2022-10-16T10:35:05;20.40;91.00
25352;DHT22;13304;48.464;8.712;2022-10-16T10:45:16;20.80;89.30
25352;DHT22;13304;48.464;8.712;2022-10-16T10:53:01;21.10;90.00
25352;DHT22;13304;48.464;8.712;2022-10-16T11:01:12;21.40;92.10
25352;DHT22;13304;48.464;8.712;2022-10-16T11:06:11;21.60;90.90
25352;DHT22;13304;48.464;8.712;2022-10-16T11:11:17;21.80;91.50
25352;DHT22;13304;48.464;8.712;2022-10-16T11:16:13;21.90;86.90
25352;DHT22;13304;48.464;8.712;2022-10-16T11:21:14;22.10;87.90
25352;DHT22;13304;48.464;8.712;2022-10-16T11:23:42;22.10;83.50
25352;DHT22;13304;48.464;8.712;2022-10-16T11:26:14;22.20;89.20
25352;DHT22;13304;48.464;8.712;2022-10-16T11:28:50;22.20;90.20
25352;DHT22;13304;48.464;8.712;2022-10-16T11:31:19;22.30;90.00
25352;DHT22;13304;48.464;8.712;2022-10-16T11:34:10;22.30;84.40
25352;DHT22;13304;48.464;8.712;2022-10-16T11:41:49;22.40;80.10
25352;DHT22;13304;48.464;8.712;2022-10-16T11:46:43;22.40;84.50
25352;DHT22;13304;48.464;8.712;2022-10-16T11:51:41;22.50;77.10
25352;DHT22;13304;48.464;8.712;2022-10-16T11:54:20;22.50;79.40
25352;DHT22;13304;48.464;8.712;2022-10-16T11:56:48;22.50;84.90
25352;DHT22;13304;48.464;8.712;2022-10-16T12:01:51;22.60;83.20
25352;DHT22;13304;48.464;8.712;2022-10-16T12:06:47;22.70;78.60
25352;DHT22;13304;48.464;8.712;2022-10-16T12:09:30;22.70;78.10
25352;DHT22;13304;48.464;8.712;2022-10-16T12:11:56;22.70;75.30
25352;DHT22;13304;48.464;8.712;2022-10-16T12:19:22;22.80;76.90
25352;DHT22;13304;48.464;8.712;2022-10-16T12:21:48;22.90;80.80
25352;DHT22;13304;48.464;8.712;2022-10-16T12:26:47;22.90;70.10
25352;DHT22;13304;48.464;8.712;2022-10-16T12:29:17;22.90;74.60
25352;DHT22;13304;48.464;8.712;2022-10-16T12:31:48;22.80;73.50
25352;DHT22;13304;48.464;8.712;2022-10-16T12:34:20;22.80;70.80
25352;DHT22;13304;48.464;8.712;2022-10-16T12:36:47;22.90;74.00
25352;DHT22;13304;48.464;8.712;2022-10-16T12:39:20;22.90;72.60
25352;DHT22;13304;48.464;8.712;2022-10-16T12:41:59;22.80;74.90
25352;DHT22;13304;48.464;8.712;2022-10-16T12:44:25;22.90;71.90
25352;DHT22;13304;48.464;8.712;2022-10-16T12:46:55;22.90;70.10
25352;DHT22;13304;48.464;8.712;2022-10-16T12:49:22;22.80;66.80
25352;DHT22;13304;48.464;8.712;2022-10-16T12:51:49;22.90;73.70
25352;DHT22;13304;48.464;8.712;2022-10-16T12:54:19;22.90;72.90
25352;DHT22;13304;48.464;8.712;2022-10-16T13:04:51;22.80;72.10
25352;DHT22;13304;48.464;8.712;2022-10-16T13:20:07;22.80;72.50
25352;DHT22;13304;48.464;8.712;2022-10-16T13:30:20;22.80;73.00
25352;DHT22;13304;48.464;8.712;2022-10-16T13:32:47;22.80;71.20
25352;DHT22;13304;48.464;8.712;2022-10-16T13:35:24;22.80;70.90
25352;DHT22;13304;48.464;8.712;2022-10-16T13:37:51;22.80;71.40
25352;DHT22;13304;48.464;8.712;2022-10-16T13:42:45;22.80;72.20
25352;DHT22;13304;48.464;8.712;2022-10-16T13:45:18;22.80;78.70
25352;DHT22;13304;48.464;8.712;2022-10-16T13:47:43;22.80;78.10
25352;DHT22;13304;48.464;8.712;2022-10-16T13:50:13;22.90;79.00
25352;DHT22;13304;48.464;8.712;2022-10-16T13:52:39;22.90;73.60
25352;DHT22;13304;48.464;8.712;2022-10-16T13:55:10;22.90;80.50
25352;DHT22;13304;48.464;8.712;2022-10-16T13:57:36;23.00;73.50
25352;DHT22;13304;48.464;8.712;2022-10-16T14:00:02;23.00;76.80
25352;DHT22;13304;48.464;8.712;2022-10-16T14:02:30;23.00;70.90
25352;DHT22;13304;48.464;8.712;2022-10-16T14:04:56;23.00;66.70
25352;DHT22;13304;48.464;8.712;2022-10-16T14:07:26;23.10;73.50
25352;DHT22;13304;48.464;8.712;2022-10-16T14:09:54;23.10;70.60
25352;DHT22;13304;48.464;8.712;2022-10-16T14:12:20;23.10;68.20
25352;DHT22;13304;48.464;8.712;2022-10-16T14:14:47;23.20;67.10
25352;DHT22;13304;48.464;8.712;2022-10-16T14:17:32;23.20;73.10
25352;DHT22;13304;48.464;8.712;2022-10-16T14:20:00;23.20;77.70
25352;DHT22;13304;48.464;8.712;2022-10-16T14:22:30;23.30;74.50
25352;DHT22;13304;48.464;8.712;2022-10-16T14:24:57;23.30;78.90
25352;DHT22;13304;48.464;8.712;2022-10-16T14:30:01;23.30;75.80
25352;DHT22;13304;48.464;8.712;2022-10-16T14:32:26;23.30;73.70
25352;DHT22;13304;48.464;8.712;2022-10-16T14:34:53;23.30;66.10
25352;DHT22;13304;48.464;8.712;2022-10-16T14:39:49;23.20;70.40
25352;DHT22;13304;48.464;8.712;2022-10-16T14:42:18;23.20;72.10
25352;DHT22;13304;48.464;8.712;2022-10-16T14:44:45;23.20;75.70
25352;DHT22;13304;48.464;8.712;2022-10-16T14:47:13;23.20;78.50
25352;DHT22;13304;48.464;8.712;2022-10-16T14:49:40;23.20;77.40
25352;DHT22;13304;48.464;8.712;2022-10-16T14:52:10;23.20;80.80
25352;DHT22;13304;48.464;8.712;2022-10-16T14:54:36;23.20;81.50
25352;DHT22;13304;48.464;8.712;2022-10-16T14:57:01;23.20;82.20
25352;DHT22;13304;48.464;8.712;2022-10-16T14:59:37;23.20;82.70
25352;DHT22;13304;48.464;8.712;2022-10-16T15:04:48;23.20;83.60
25352;DHT22;13304;48.464;8.712;2022-10-16T15:07:14;23.20;83.90
25352;DHT22;13304;48.464;8.712;2022-10-16T15:09:39;23.10;84.10
25352;DHT22;13304;48.464;8.712;2022-10-16T15:12:05;23.10;84.40
25352;DHT22;13304;48.464;8.712;2022-10-16T15:14:31;23.10;84.80
25352;DHT22;13304;48.464;8.712;2022-10-16T15:16:56;23.00;83.90
25352;DHT22;13304;48.464;8.712;2022-10-16T15:19:22;23.00;84.10
25352;DHT22;13304;48.464;8.712;2022-10-16T15:21:48;23.00;84.50
25352;DHT22;13304;48.464;8.712;2022-10-16T15:24:14;22.90;72.30
25352;DHT22;13304;48.464;8.712;2022-10-16T15:26:40;22.90;74.30
25352;DHT22;13304;48.464;8.712;2022-10-16T15:29:06;22.80;72.80
25352;DHT22;13304;48.464;8.712;2022-10-16T15:31:32;22.80;78.20
25352;DHT22;13304;48.464;8.712;2022-10-16T15:33:57;22.80;71.20
25352;DHT22;13304;48.464;8.712;2022-10-16T15:36:31;22.80;75.60
25352;DHT22;13304;48.464;8.712;2022-10-16T15:38:59;22.70;80.00
25352;DHT22;13304;48.464;8.712;2022-10-16T15:41:24;22.70;82.30
25352;DHT22;13304;48.464;8.712;2022-10-16T15:43:50;22.70;81.70
25352;DHT22;13304;48.464;8.712;2022-10-16T15:46:20;22.70;78.30
25352;DHT22;13304;48.464;8.712;2022-10-16T15:48:46;22.60;78.50
25352;DHT22;13304;48.464;8.712;2022-10-16T15:51:15;22.60;76.90
25352;DHT22;13304;48.464;8.712;2022-10-16T15:53:40;22.60;81.30
25352;DHT22;13304;48.464;8.712;2022-10-16T15:56:07;22.50;81.90
25352;DHT22;13304;48.464;8.712;2022-10-16T15:58:33;22.50;78.80
25352;DHT22;13304;48.464;8.712;2022-10-16T16:00:59;22.50;80.60
25352;DHT22;13304;48.464;8.712;2022-10-16T16:03:29;22.40;80.40
25352;DHT22;13304;48.464;8.712;2022-10-16T16:05:55;22.40;81.60
25352;DHT22;13304;48.464;8.712;2022-10-16T16:08:21;22.30;80.90
25352;DHT22;13304;48.464;8.712;2022-10-16T16:11:03;22.30;82.30
25352;DHT22;13304;48.464;8.712;2022-10-16T16:13:29;22.30;83.90
25352;DHT22;13304;48.464;8.712;2022-10-16T16:15:55;22.20;77.50
25352;DHT22;13304;48.464;8.712;2022-10-16T16:18:20;22.10;75.40
25352;DHT22;13304;48.464;8.712;2022-10-16T16:20:46;22.10;77.70
25352;DHT22;13304;48.464;8.712;2022-10-16T16:23:11;22.00;79.60
25352;DHT22;13304;48.464;8.712;2022-10-16T16:25:37;22.00;81.70
25352;DHT22;13304;48.464;8.712;2022-10-16T16:28:03;22.00;81.40
25352;DHT22;13304;48.464;8.712;2022-10-16T16:30:28;21.90;83.30
25352;DHT22;13304;48.464;8.712;2022-10-16T16:32:54;21.90;83.70
25352;DHT22;13304;48.464;8.712;2022-10-16T16:35:19;21.80;84.40
25352;DHT22;13304;48.464;8.712;2022-10-16T16:37:46;21.80;84.60
25352;DHT22;13304;48.464;8.712;2022-10-16T16:40:12;21.70;85.00
25352;DHT22;13304;48.464;8.712;2022-10-16T16:42:37;21.70;85.00
25352;DHT22;13304;48.464;8.712;2022-10-16T16:45:03;21.70;85.20
25352;DHT22;13304;48.464;8.712;2022-10-16T16:47:29;21.60;85.30
25352;DHT22;13304;48.464;8.712;2022-10-16T16:49:54;21.60;85.40
25352;DHT22;13304;48.464;8.712;2022-10-16T16:52:22;21.50;85.70
25352;DHT22;13304;48.464;8.712;2022-10-16T16:54:48;21.40;85.70
25352;DHT22;13304;48.464;8.712;2022-10-16T16:57:20;21.40;85.00
25352;DHT22;13304;48.464;8.712;2022-10-16T16:59:45;21.30;85.30
25352;DHT22;13304;48.464;8.712;2022-10-16T17:02:11;21.20;86.00
25352;DHT22;13304;48.464;8.712;2022-10-16T17:04:36;21.20;86.20
25352;DHT22;13304;48.464;8.712;2022-10-16T17:07:02;21.10;86.30
25352;DHT22;13304;48.464;8.712;2022-10-16T17:09:28;21.10;86.00
25352;DHT22;13304;48.464;8.712;2022-10-16T17:11:53;21.00;86.60
25352;DHT22;13304;48.464;8.712;2022-10-16T17:14:19;20.90;86.80
25352;DHT22;13304;48.464;8.712;2022-10-16T17:16:44;20.90;87.00
25352;DHT22;13304;48.464;8.712;2022-10-16T17:19:11;20.90;87.20
25352;DHT22;13304;48.464;8.712;2022-10-16T17:21:37;20.80;87.30
25352;DHT22;13304;48.464;8.712;2022-10-16T17:24:03;20.80;87.40
25352;DHT22;13304;48.464;8.712;2022-10-16T17:26:29;20.70;87.50
25352;DHT22;13304;48.464;8.712;2022-10-16T17:28:56;20.70;87.30
25352;DHT22;13304;48.464;8.712;2022-10-16T17:31:23;20.60;87.50
25352;DHT22;13304;48.464;8.712;2022-10-16T17:33:49;20.50;87.20
25352;DHT22;13304;48.464;8.712;2022-10-16T17:36:16;20.50;87.00
25352;DHT22;13304;48.464;8.712;2022-10-16T17:38:41;20.50;87.60
25352;DHT22;13304;48.464;8.712;2022-10-16T17:41:15;20.40;87.70
25352;DHT22;13304;48.464;8.712;2022-10-16T17:43:41;20.40;87.70